Time;durP1;ratioP1;P1;durP2;ratioP2;P2;SDS_P1;SDS_P2;PMS_P1;PMS_P2;Temp;Humidity;BMP_temperature;BMP_pressure;BME280_temperature;BME280_humidity;BME280_pressure;Samples;Min_cycle;Max_cycle;Signal;HPM_P1;HPM_P2
2021/09/16 00:02:36;;;;;;;3.95;2.80;;;23.70;61.40;;;;;;6253271;28;20032;-72
2021/09/16 00:05:37;;;;;;;5.30;2.92;;;23.70;61.30;;;;;;6252856;28;20036;-72
2021/09/16 00:08:38;;;;;;;4.70;2.53;;;23.70;61.30;;;;;;6270915;28;20078;-71
2021/09/16 00:11:40;;;;;;;5.55;3.10;;;23.70;61.30;;;;;;6253101;28;20028;-72
2021/09/16 00:14:41;;;;;;;4.57;2.78;;;23.70;61.30;;;;;;6271571;28;20025;-72
2021/09/16 00:17:43;;;;;;;4.97;2.80;;;23.70;61.30;;;;;;6253207;28;20080;-72
2021/09/16 00:20:45;;;;;;;4.32;2.80;;;23.70;61.30;;;;;;6267805;28;20021;-73
2021/09/16 00:23:47;;;;;;;4.05;2.30;;;23.70;61.30;;;;;;6252696;28;20021;-74
2021/09/16 00:26:48;;;;;;;4.35;2.60;;;23.70;61.30;;;;;;6270792;28;20017;-74
2021/09/16 00:29:48;;;;;;;3.10;2.10;;;23.70;61.30;;;;;;6270791;28;20109;-74
2021/09/16 00:32:51;;;;;;;3.25;2.30;;;23.70;61.30;;;;;;6270602;28;20032;-74
2021/09/16 00:35:51;;;;;;;3.63;2.28;;;23.70;61.30;;;;;;6270335;28;20052;-74
2021/09/16 00:38:52;;;;;;;4.75;2.40;;;23.70;61.30;;;;;;6253369;28;20032;-74
2021/09/16 00:41:53;;;;;;;3.10;2.17;;;23.70;61.30;;;;;;6270333;28;20048;-74
2021/09/16 00:44:54;;;;;;;4.15;2.40;;;23.70;61.30;;;;;;6270240;28;20017;-74
2021/09/16 00:47:55;;;;;;;4.28;2.42;;;23.70;61.30;;;;;;6252572;28;20017;-73
2021/09/16 00:50:58;;;;;;;2.67;2.05;;;23.70;61.30;;;;;;6270551;28;20096;-74
2021/09/16 00:54:02;;;;;;;2.65;1.95;;;23.70;61.30;;;;;;6252178;28;20108;-74
2021/09/16 00:57:05;;;;;;;5.35;2.53;;;23.70;61.30;;;;;;6252690;28;20031;-73
2021/09/16 01:00:08;;;;;;;3.40;2.38;;;23.70;61.30;;;;;;6269655;28;20434;-74
2021/09/16 01:03:10;;;;;;;3.83;2.35;;;23.70;61.20;;;;;;6268932;28;20036;-73
2021/09/16 01:06:12;;;;;;;3.05;2.08;;;23.70;61.30;;;;;;6246510;28;20030;-73
2021/09/16 01:09:13;;;;;;;2.90;1.90;;;23.70;61.30;;;;;;6227251;28;20548;-72
2021/09/16 01:12:14;;;;;;;2.92;2.15;;;23.70;61.30;;;;;;6245532;28;20025;-72
2021/09/16 01:15:16;;;;;;;4.82;2.20;;;23.70;61.30;;;;;;6241841;28;20037;-73
2021/09/16 01:18:17;;;;;;;4.00;2.25;;;23.70;61.30;;;;;;6226957;28;20025;-74
2021/09/16 01:21:21;;;;;;;2.78;2.03;;;23.70;61.30;;;;;;6227403;28;20079;-74
2021/09/16 01:24:23;;;;;;;3.63;2.03;;;23.70;61.30;;;;;;6227176;28;20223;-73
2021/09/16 01:27:23;;;;;;;3.08;2.15;;;23.70;61.30;;;;;;6226633;28;20104;-74
2021/09/16 01:30:24;;;;;;;3.38;1.90;;;23.70;61.30;;;;;;6227126;28;20360;-73
2021/09/16 01:33:25;;;;;;;2.65;1.73;;;23.70;61.30;;;;;;6244725;28;20482;-74
2021/09/16 01:36:26;;;;;;;3.20;2.03;;;23.70;61.30;;;;;;6226388;28;20100;-74
2021/09/16 01:39:28;;;;;;;2.55;1.70;;;23.70;61.30;;;;;;6244344;28;20462;-73
2021/09/16 01:42:29;;;;;;;3.25;2.00;;;23.70;61.30;;;;;;6245197;28;20056;-74
2021/09/16 01:45:30;;;;;;;2.65;1.85;;;23.70;61.30;;;;;;6251029;28;20025;-73
2021/09/16 01:48:30;;;;;;;2.38;1.65;;;23.70;61.40;;;;;;6251231;28;20021;-74
2021/09/16 01:51:33;;;;;;;2.33;1.70;;;23.70;61.30;;;;;;6251510;28;20787;-74
2021/09/16 01:54:33;;;;;;;3.47;1.80;;;23.70;61.30;;;;;;6251577;28;20036;-74
2021/09/16 01:57:34;;;;;;;2.47;1.60;;;23.70;61.30;;;;;;6250890;28;20525;-73
2021/09/16 02:00:35;;;;;;;3.15;1.98;;;23.70;61.80;;;;;;6250985;28;20451;-73
2021/09/16 02:03:36;;;;;;;2.17;1.77;;;23.70;61.30;;;;;;6250598;28;20025;-74
2021/09/16 02:06:37;;;;;;;1.88;1.40;;;23.70;61.20;;;;;;6251133;28;20025;-73
2021/09/16 02:09:39;;;;;;;2.28;1.77;;;23.70;61.30;;;;;;6250730;28;20075;-73
2021/09/16 02:12:40;;;;;;;2.20;1.60;;;23.70;61.20;;;;;;6268635;28;20021;-74
2021/09/16 02:15:41;;;;;;;2.88;1.75;;;23.80;61.40;;;;;;6255684;28;20103;-74
2021/09/16 02:18:42;;;;;;;1.85;1.50;;;23.70;61.30;;;;;;6273316;28;20025;-73
2021/09/16 02:21:43;;;;;;;3.13;1.70;;;23.70;61.30;;;;;;6273925;28;20107;-72
2021/09/16 02:24:44;;;;;;;2.47;1.50;;;23.70;61.30;;;;;;6256153;28;20485;-72
2021/09/16 02:27:46;;;;;;;2.10;1.50;;;23.70;61.30;;;;;;6273241;28;20049;-72
2021/09/16 02:30:46;;;;;;;1.98;1.40;;;23.70;61.30;;;;;;6254788;28;20040;-72
2021/09/16 02:33:47;;;;;;;2.10;1.55;;;23.70;61.30;;;;;;6271962;28;20029;-74
2021/09/16 02:36:48;;;;;;;2.63;1.77;;;23.70;61.30;;;;;;6272974;28;20099;-72
2021/09/16 02:39:49;;;;;;;2.25;1.42;;;23.70;61.30;;;;;;6273204;28;20493;-74
2021/09/16 02:42:50;;;;;;;2.15;1.75;;;23.70;61.20;;;;;;6273986;28;20041;-73
2021/09/16 02:45:52;;;;;;;1.60;1.30;;;23.80;61.40;;;;;;6254137;28;20052;-74
2021/09/16 02:48:52;;;;;;;1.80;1.40;;;23.70;61.40;;;;;;6271137;28;20025;-74
2021/09/16 02:51:53;;;;;;;1.80;1.40;;;23.70;61.30;;;;;;6253342;28;20025;-74
2021/09/16 02:54:55;;;;;;;2.60;1.50;;;23.70;61.30;;;;;;6271367;28;20044;-73
2021/09/16 02:57:56;;;;;;;1.88;1.45;;;23.70;61.40;;;;;;6269063;28;20021;-73
2021/09/16 03:00:57;;;;;;;1.60;1.30;;;23.70;61.30;;;;;;6270682;28;20116;-73
2021/09/16 03:03:58;;;;;;;2.67;1.45;;;23.70;61.30;;;;;;6271127;28;20021;-74
2021/09/16 03:06:59;;;;;;;1.98;1.50;;;23.70;61.30;;;;;;6271101;28;20029;-74
2021/09/16 03:10:01;;;;;;;1.38;1.10;;;23.70;61.30;;;;;;6271316;28;20025;-73
2021/09/16 03:13:01;;;;;;;2.10;1.20;;;23.70;61.20;;;;;;6245077;28;20538;-72
2021/09/16 03:16:02;;;;;;;1.83;1.20;;;23.70;61.20;;;;;;6267507;28;20060;-74
2021/09/16 03:19:05;;;;;;;1.17;1.08;;;23.70;61.20;;;;;;6252385;28;20111;-74
2021/09/16 03:22:06;;;;;;;1.48;1.25;;;23.70;61.20;;;;;;6252454;28;20047;-74
2021/09/16 03:25:09;;;;;;;1.00;0.90;;;23.70;61.20;;;;;;6242923;28;20025;-73
2021/09/16 03:28:10;;;;;;;2.08;1.30;;;23.70;61.20;;;;;;6246054;28;20075;-74
2021/09/16 03:31:10;;;;;;;1.73;1.17;;;23.70;61.20;;;;;;6246130;28;20029;-73
2021/09/16 03:34:12;;;;;;;1.45;1.23;;;23.70;61.30;;;;;;6252223;28;20033;-74
2021/09/16 03:37:13;;;;;;;1.80;1.30;;;23.70;61.30;;;;;;6270049;28;20409;-73
2021/09/16 03:40:13;;;;;;;1.38;1.10;;;23.70;61.20;;;;;;6251674;28;20043;-74
2021/09/16 03:43:14;;;;;;;1.30;1.20;;;23.70;61.20;;;;;;6252818;28;20104;-73
2021/09/16 03:46:15;;;;;;;1.50;1.23;;;23.70;61.20;;;;;;6269633;28;20109;-73
2021/09/16 03:49:18;;;;;;;1.20;0.93;;;23.70;61.20;;;;;;6251933;28;20058;-74
2021/09/16 03:52:18;;;;;;;1.42;1.30;;;23.80;61.40;;;;;;6252196;28;20553;-73
2021/09/16 03:55:19;;;;;;;1.20;1.05;;;23.70;61.20;;;;;;6269585;28;20035;-74
2021/09/16 03:58:22;;;;;;;1.40;1.23;;;23.80;61.40;;;;;;6251838;28;20025;-74
2021/09/16 04:01:23;;;;;;;1.83;1.40;;;23.70;61.20;;;;;;6238473;28;20032;-73
2021/09/16 04:04:23;;;;;;;1.40;1.10;;;23.80;61.40;;;;;;6245002;28;20425;-73
2021/09/16 04:07:26;;;;;;;2.03;1.40;;;23.70;61.20;;;;;;6226303;28;20053;-74
2021/09/16 04:10:28;;;;;;;1.33;1.13;;;23.70;61.20;;;;;;6231283;28;20548;-74
2021/09/16 04:13:29;;;;;;;1.20;1.10;;;23.80;61.40;;;;;;6251788;28;20071;-74
2021/09/16 04:16:30;;;;;;;1.38;1.10;;;23.70;61.20;;;;;;6221456;28;20130;-73
2021/09/16 04:19:32;;;;;;;1.52;1.10;;;23.70;61.30;;;;;;6233383;28;20462;-73
2021/09/16 04:22:35;;;;;;;1.98;1.40;;;23.70;62.10;;;;;;6240924;28;20036;-73
2021/09/16 04:25:37;;;;;;;1.42;1.20;;;23.70;61.20;;;;;;6240855;28;20048;-74
2021/09/16 04:28:38;;;;;;;1.52;1.30;;;23.70;61.30;;;;;;6241351;28;20025;-73
2021/09/16 04:31:40;;;;;;;1.33;1.10;;;23.70;61.20;;;;;;6234606;28;20040;-73
2021/09/16 04:34:41;;;;;;;1.48;1.00;;;23.80;61.40;;;;;;6240689;28;20040;-73
2021/09/16 04:37:43;;;;;;;2.00;1.30;;;23.70;61.20;;;;;;6239445;28;20033;-73
2021/09/16 04:40:45;;;;;;;1.73;1.10;;;23.70;61.30;;;;;;6240287;28;20041;-74
2021/09/16 04:43:46;;;;;;;1.15;1.05;;;23.80;61.40;;;;;;6240385;28;20022;-74
2021/09/16 04:46:46;;;;;;;1.80;1.30;;;23.70;61.20;;;;;;6250054;28;20610;-74
2021/09/16 04:49:47;;;;;;;0.98;0.90;;;23.70;61.20;;;;;;6254370;28;20025;-74
2021/09/16 04:52:48;;;;;;;1.27;0.90;;;23.80;61.40;;;;;;6225320;28;20124;-73
2021/09/16 04:55:49;;;;;;;1.10;1.00;;;23.80;61.40;;;;;;6226045;28;20037;-74
2021/09/16 05:09:21;;;;;;;2.25;1.05;;;23.80;61.40;;;;;;6336492;27;20400;-73
2021/09/16 05:12:22;;;;;;;1.33;1.05;;;23.80;61.40;;;;;;6322864;28;20105;-73
2021/09/16 05:15:23;;;;;;;1.83;1.15;;;23.80;61.40;;;;;;6330945;28;20020;-73
2021/09/16 05:18:23;;;;;;;1.20;1.10;;;23.80;61.40;;;;;;6334357;28;20024;-73
2021/09/16 05:21:23;;;;;;;1.30;1.20;;;23.80;61.40;;;;;;6334620;28;20102;-73
2021/09/16 05:24:24;;;;;;;3.05;2.00;;;23.80;61.40;;;;;;6335661;28;20346;-73
2021/09/16 05:27:25;;;;;;;2.53;1.50;;;23.80;61.40;;;;;;6335524;28;20024;-72
2021/09/16 05:30:25;;;;;;;2.25;1.75;;;23.80;61.50;;;;;;6335539;28;20073;-73
2021/09/16 05:33:26;;;;;;;2.08;1.70;;;23.80;61.50;;;;;;6335300;28;20042;-73
2021/09/16 05:36:26;;;;;;;5.00;2.53;;;23.80;61.50;;;;;;6336640;28;20027;-72
2021/09/16 05:39:27;;;;;;;13.50;2.58;;;23.80;61.60;;;;;;6335586;28;20367;-73
2021/09/16 05:42:27;;;;;;;3.03;2.00;;;23.80;61.60;;;;;;6335183;28;20028;-73
2021/09/16 05:45:28;;;;;;;5.75;2.33;;;23.80;61.60;;;;;;6337522;28;20465;-73
2021/09/16 05:48:28;;;;;;;3.30;2.22;;;23.80;61.60;;;;;;6336727;28;20034;-73
2021/09/16 05:51:29;;;;;;;4.35;1.90;;;23.80;61.60;;;;;;6337482;28;20090;-73
2021/09/16 05:54:29;;;;;;;3.83;1.90;;;23.80;61.60;;;;;;6337520;28;20035;-73
2021/09/16 05:57:30;;;;;;;2.25;2.05;;;23.80;61.60;;;;;;6335233;28;20032;-73
2021/09/16 06:00:31;;;;;;;5.22;2.17;;;23.80;61.60;;;;;;6335388;28;20054;-73
2021/09/16 06:03:31;;;;;;;3.53;1.85;;;23.80;61.60;;;;;;6328177;28;20412;-73
2021/09/16 06:06:32;;;;;;;4.90;2.10;;;23.80;61.60;;;;;;6339684;28;20027;-73
2021/09/16 06:09:34;;;;;;;4.97;2.10;;;23.80;61.60;;;;;;6321671;28;20127;-73
2021/09/16 06:12:35;;;;;;;4.10;1.73;;;23.80;61.60;;;;;;6321462;28;20119;-73
2021/09/16 06:15:35;;;;;;;3.17;1.95;;;23.80;61.60;;;;;;6322362;28;20425;-73
2021/09/16 06:18:36;;;;;;;4.35;2.00;;;23.80;61.60;;;;;;6322766;28;20032;-73
2021/09/16 06:21:36;;;;;;;4.25;2.45;;;23.80;61.60;;;;;;6322146;28;20028;-73
2021/09/16 06:24:37;;;;;;;3.58;1.70;;;23.80;61.60;;;;;;6322410;28;20039;-73
2021/09/16 06:27:37;;;;;;;4.10;2.15;;;23.80;61.60;;;;;;6322097;28;20474;-73
2021/09/16 06:30:38;;;;;;;2.55;1.90;;;23.80;61.70;;;;;;6322144;28;20024;-72
2021/09/16 06:33:38;;;;;;;3.88;2.30;;;23.80;61.60;;;;;;6322028;28;20479;-73
2021/09/16 06:36:39;;;;;;;5.97;2.83;;;23.80;61.60;;;;;;6321991;28;20394;-73
2021/09/16 06:39:39;;;;;;;7.38;2.42;;;23.80;61.60;;;;;;6321397;28;20038;-73
2021/09/16 06:42:40;;;;;;;3.97;2.22;;;23.80;61.60;;;;;;6322101;28;20024;-72
2021/09/16 06:45:41;;;;;;;11.40;2.88;;;23.80;61.60;;;;;;6321383;28;20499;-73
2021/09/16 06:48:41;;;;;;;5.10;2.40;;;23.80;61.60;;;;;;6321743;28;20012;-72
2021/09/16 06:51:42;;;;;;;6.80;2.47;;;23.80;61.60;;;;;;6321024;28;20026;-72
2021/09/16 06:54:43;;;;;;;9.82;2.58;;;23.80;61.60;;;;;;6321726;28;20024;-73
2021/09/16 06:57:44;;;;;;;8.10;2.92;;;23.80;61.60;;;;;;6321571;28;20070;-72
2021/09/16 07:00:44;;;;;;;7.75;2.65;;;23.80;61.70;;;;;;6321528;28;20023;-73
2021/09/16 07:03:46;;;;;;;11.27;3.40;;;23.80;61.60;;;;;;6321151;28;20032;-73
2021/09/16 07:06:47;;;;;;;9.90;2.63;;;23.80;61.70;;;;;;6317618;28;20032;-73
2021/09/16 07:09:47;;;;;;;9.98;3.38;;;23.80;61.70;;;;;;6321129;28;20395;-73
2021/09/16 07:12:48;;;;;;;13.52;3.55;;;23.80;61.70;;;;;;6320879;28;20039;-73
2021/09/16 07:15:48;;;;;;;16.33;4.50;;;23.80;61.70;;;;;;6313994;28;20060;-72
2021/09/16 07:18:49;;;;;;;8.85;2.80;;;23.80;61.70;;;;;;6320944;28;20301;-73
2021/09/16 07:21:50;;;;;;;12.48;3.10;;;23.80;61.60;;;;;;6320110;28;20336;-73
2021/09/16 07:24:50;;;;;;;10.60;3.10;;;23.80;61.80;;;;;;6320766;28;20062;-73
2021/09/16 07:27:51;;;;;;;9.30;2.78;;;23.80;61.70;;;;;;6320550;28;20340;-72
2021/09/16 07:30:51;;;;;;;12.20;3.63;;;23.80;61.60;;;;;;6320730;28;20020;-73
2021/09/16 07:33:52;;;;;;;8.82;2.60;;;23.80;61.60;;;;;;6320186;28;20042;-72
2021/09/16 07:36:52;;;;;;;10.63;3.25;;;23.80;61.60;;;;;;6320370;28;20108;-72
2021/09/16 07:39:53;;;;;;;12.23;3.72;;;23.80;61.80;;;;;;6319874;28;20036;-73
2021/09/16 07:42:53;;;;;;;14.93;4.03;;;23.80;61.80;;;;;;6320814;28;20028;-73
2021/09/16 07:45:54;;;;;;;10.57;3.45;;;23.80;61.90;;;;;;6320807;28;20372;-72
2021/09/16 07:48:54;;;;;;;11.60;3.53;;;23.80;62.00;;;;;;6320004;28;20039;-72
2021/09/16 07:51:55;;;;;;;9.65;3.08;;;23.80;62.20;;;;;;6320057;28;20028;-73
2021/09/16 07:54:56;;;;;;;9.00;2.72;;;23.80;62.10;;;;;;6320795;28;20081;-73
2021/09/16 07:57:56;;;;;;;10.18;3.50;;;23.80;62.10;;;;;;6319738;28;20036;-73
2021/09/16 08:00:57;;;;;;;10.00;3.03;;;23.80;62.00;;;;;;6319728;28;20089;-73
2021/09/16 08:03:57;;;;;;;8.88;3.15;;;23.80;62.10;;;;;;6320260;28;20386;-73
2021/09/16 08:06:58;;;;;;;8.13;3.10;;;23.80;62.00;;;;;;6319579;28;20571;-73
2021/09/16 08:09:58;;;;;;;5.97;2.72;;;23.80;62.00;;;;;;6318620;28;20031;-73
2021/09/16 08:12:59;;;;;;;7.95;2.70;;;23.80;62.00;;;;;;6319749;28;20475;-73
2021/09/16 08:15:59;;;;;;;8.75;2.80;;;23.80;62.00;;;;;;6302939;28;20291;-73
2021/09/16 08:19:01;;;;;;;10.38;3.05;;;23.80;61.90;;;;;;6318398;28;20042;-72
2021/09/16 08:22:02;;;;;;;8.82;3.22;;;23.80;62.00;;;;;;6319514;28;20020;-73
2021/09/16 08:25:05;;;;;;;7.30;2.72;;;23.80;61.90;;;;;;6319377;28;20027;-73
2021/09/16 08:28:05;;;;;;;9.55;2.70;;;23.80;61.90;;;;;;6320112;28;20024;-73
2021/09/16 08:31:06;;;;;;;6.03;2.58;;;23.80;61.90;;;;;;6318860;28;20115;-73
2021/09/16 08:34:07;;;;;;;7.28;2.58;;;23.80;61.90;;;;;;6320362;28;20027;-73
2021/09/16 08:37:08;;;;;;;5.88;2.42;;;23.80;61.90;;;;;;6318986;28;20445;-73
2021/09/16 08:40:09;;;;;;;6.93;2.22;;;23.80;61.90;;;;;;6319809;28;20100;-73
2021/09/16 08:43:11;;;;;;;7.97;2.85;;;23.80;61.90;;;;;;6318946;28;20024;-73
2021/09/16 08:46:12;;;;;;;4.88;2.47;;;23.80;61.80;;;;;;6319266;28;20102;-73
2021/09/16 08:49:13;;;;;;;3.95;1.90;;;23.80;61.90;;;;;;6317699;28;20117;-73
2021/09/16 08:52:15;;;;;;;7.25;2.67;;;23.80;61.80;;;;;;6319152;28;20024;-73
2021/09/16 08:55:18;;;;;;;6.28;2.70;;;23.80;61.80;;;;;;6319415;28;20024;-72
2021/09/16 08:58:22;;;;;;;4.90;2.42;;;23.80;61.80;;;;;;6317430;28;20043;-73
2021/09/16 09:01:23;;;;;;;5.60;2.15;;;23.80;61.80;;;;;;6318869;28;20024;-73
2021/09/16 09:04:24;;;;;;;5.53;2.60;;;23.80;61.80;;;;;;6315974;28;20039;-73
2021/09/16 09:07:42;;;;;;;5.35;2.10;;;23.80;61.80;;;;;;6314865;28;20454;-73
2021/09/16 09:10:48;;;;;;;4.30;2.13;;;23.80;61.70;;;;;;6318831;28;20455;-73
2021/09/16 09:13:56;;;;;;;6.30;2.25;;;23.80;61.70;;;;;;6318807;28;20035;-73
2021/09/16 09:16:58;;;;;;;6.78;2.30;;;23.80;61.70;;;;;;6319275;28;20362;-73
2021/09/16 09:20:06;;;;;;;4.35;2.13;;;23.80;61.70;;;;;;6318856;28;20107;-73
2021/09/16 09:23:34;;;;;;;3.85;1.95;;;23.80;61.70;;;;;;6316554;28;20024;-73
2021/09/16 09:26:37;;;;;;;3.00;1.63;;;23.80;61.70;;;;;;6318992;28;20065;-73
2021/09/16 09:29:37;;;;;;;4.70;1.95;;;23.80;61.70;;;;;;6318317;28;20086;-73
2021/09/16 09:32:50;;;;;;;3.67;1.73;;;23.80;61.60;;;;;;6318400;28;20024;-73
2021/09/16 09:35:50;;;;;;;4.78;2.13;;;23.80;61.60;;;;;;6318524;28;20020;-73
2021/09/16 09:39:01;;;;;;;4.32;1.65;;;23.80;61.60;;;;;;6318580;28;20502;-73
2021/09/16 09:42:25;;;;;;;3.08;1.70;;;23.80;61.60;;;;;;6318469;28;20043;-74
2021/09/16 09:45:25;;;;;;;2.67;1.45;;;23.80;61.60;;;;;;6322454;28;20479;-72
2021/09/16 09:48:27;;;;;;;3.55;2.00;;;23.80;61.60;;;;;;6322887;28;20063;-73
2021/09/16 09:51:58;;;;;;;3.35;1.75;;;23.80;61.60;;;;;;6323008;28;20103;-73
2021/09/16 09:54:58;;;;;;;3.25;1.83;;;23.80;62.50;;;;;;6322739;28;20036;-72
2021/09/16 09:58:03;;;;;;;4.63;1.67;;;23.80;61.60;;;;;;6322488;28;20035;-73
2021/09/16 10:01:23;;;;;;;2.28;1.40;;;23.80;61.60;;;;;;6322758;28;20115;-73
2021/09/16 10:04:26;;;;;;;4.10;1.58;;;23.80;61.60;;;;;;6322887;28;20039;-73
2021/09/16 10:07:28;;;;;;;3.70;1.70;;;23.80;61.60;;;;;;6322787;28;20052;-73
2021/09/16 10:10:34;;;;;;;2.38;1.38;;;23.80;61.60;;;;;;6322806;28;20024;-72
2021/09/16 10:13:35;;;;;;;2.83;1.67;;;23.80;61.50;;;;;;6321034;28;20028;-73
2021/09/16 10:16:36;;;;;;;3.50;1.90;;;23.80;61.50;;;;;;6322670;28;20099;-73
2021/09/16 10:19:40;;;;;;;3.58;1.73;;;23.90;61.70;;;;;;6322171;28;20024;-73
2021/09/16 10:22:44;;;;;;;3.05;1.42;;;23.80;61.50;;;;;;6322980;28;20024;-73
2021/09/16 10:25:48;;;;;;;2.95;1.10;;;23.80;61.50;;;;;;6322284;28;20352;-73
2021/09/16 10:28:48;;;;;;;3.40;1.50;;;23.80;62.30;;;;;;6320761;28;20462;-73
2021/09/16 10:31:49;;;;;;;1.45;1.00;;;23.80;61.50;;;;;;6322277;28;20058;-73
2021/09/16 10:34:56;;;;;;;2.35;1.20;;;23.80;61.50;;;;;;6321555;28;20558;-73
2021/09/16 10:38:38;;;;;;;2.13;1.35;;;23.80;61.50;;;;;;6321981;28;20427;-73
2021/09/16 10:41:43;;;;;;;2.97;1.30;;;23.80;61.50;;;;;;6298593;28;20399;-73
2021/09/16 10:44:44;;;;;;;;;;;23.80;61.40;;;;;;6306946;28;20021;-73
2021/09/16 10:47:45;;;;;;;2.40;1.40;;;23.80;61.40;;;;;;6321788;28;19956;-73
2021/09/16 10:50:49;;;;;;;2.75;1.52;;;23.80;61.40;;;;;;6321041;28;20034;-73
2021/09/16 10:53:50;;;;;;;3.28;1.77;;;23.80;61.40;;;;;;6320123;28;20032;-73
2021/09/16 10:57:03;;;;;;;2.25;1.15;;;23.80;61.50;;;;;;6321488;28;20145;-72
2021/09/16 11:00:09;;;;;;;2.28;1.23;;;23.80;61.50;;;;;;6320793;28;20658;-73
2021/09/16 11:03:11;;;;;;;3.10;1.45;;;23.80;61.40;;;;;;6321249;28;20107;-73
2021/09/16 11:06:31;;;;;;;1.90;1.10;;;23.80;61.40;;;;;;6320852;28;20032;-73
2021/09/16 11:09:31;;;;;;;2.42;1.40;;;23.80;61.40;;;;;;6320389;28;20384;-72
2021/09/16 11:12:32;;;;;;;2.15;1.25;;;23.80;61.40;;;;;;6321285;28;20031;-73
2021/09/16 11:15:38;;;;;;;1.98;1.15;;;23.80;61.50;;;;;;6310824;28;20024;-73
2021/09/16 11:18:39;;;;;;;1.75;1.25;;;23.80;61.40;;;;;;6321440;28;20032;-73
2021/09/16 11:21:39;;;;;;;2.30;1.20;;;23.80;61.50;;;;;;6320541;28;20392;-73
2021/09/16 11:24:42;;;;;;;2.35;1.20;;;23.80;61.50;;;;;;6314487;28;20085;-73
2021/09/16 11:27:42;;;;;;;1.40;1.02;;;23.80;61.40;;;;;;6320375;28;20058;-72
2021/09/16 11:30:45;;;;;;;2.17;1.17;;;23.80;61.40;;;;;;6319816;28;20031;-72
2021/09/16 11:33:45;;;;;;;1.98;1.10;;;23.80;61.40;;;;;;6320587;28;20028;-73
2021/09/16 11:37:22;;;;;;;2.42;1.38;;;23.80;61.40;;;;;;6320528;28;20039;-74
2021/09/16 11:40:29;;;;;;;1.70;1.30;;;23.80;61.40;;;;;;6319679;28;20027;-73
2021/09/16 11:43:31;;;;;;;1.25;0.90;;;23.80;61.40;;;;;;6319404;28;20103;-73
2021/09/16 11:46:32;;;;;;;3.30;1.20;;;23.80;61.40;;;;;;6319165;28;20031;-73
2021/09/16 11:49:32;;;;;;;2.03;1.15;;;23.80;61.40;;;;;;6319344;28;20052;-72
2021/09/16 11:52:37;;;;;;;2.60;1.08;;;23.80;61.40;;;;;;6319331;28;20026;-73
2021/09/16 11:55:40;;;;;;;1.83;1.30;;;23.80;61.30;;;;;;6318940;28;20028;-73
2021/09/16 11:58:40;;;;;;;1.60;0.98;;;23.80;61.30;;;;;;6319255;28;20432;-73
2021/09/16 12:01:41;;;;;;;2.85;1.30;;;23.80;61.30;;;;;;6318323;28;20040;-73
2021/09/16 12:04:42;;;;;;;2.00;1.20;;;23.80;61.30;;;;;;6319227;28;20031;-73
2021/09/16 12:07:43;;;;;;;1.92;1.00;;;23.80;61.30;;;;;;6317829;28;20117;-73
2021/09/16 12:10:49;;;;;;;2.17;0.90;;;23.80;61.30;;;;;;6319222;28;20023;-73
2021/09/16 12:13:50;;;;;;;1.92;1.02;;;23.80;61.30;;;;;;6316336;28;20028;-72
2021/09/16 12:17:02;;;;;;;1.10;0.90;;;23.80;61.30;;;;;;6318444;28;20032;-73
2021/09/16 12:20:02;;;;;;;2.13;0.90;;;23.80;61.30;;;;;;6318041;28;20055;-73
2021/09/16 12:23:04;;;;;;;1.65;1.10;;;23.80;61.30;;;;;;6318953;28;20109;-73
2021/09/16 12:26:04;;;;;;;1.27;0.75;;;23.80;61.20;;;;;;6318871;28;20115;-73
2021/09/16 12:29:11;;;;;;;1.52;0.98;;;23.80;61.20;;;;;;6318062;28;20444;-73
2021/09/16 12:32:12;;;;;;;2.33;0.90;;;23.80;61.30;;;;;;6318378;28;20024;-73
2021/09/16 12:35:16;;;;;;;1.02;0.85;;;23.80;61.30;;;;;;6318557;28;20028;-73
2021/09/16 12:38:16;;;;;;;1.40;0.90;;;23.80;61.30;;;;;;6318238;28;20110;-73
2021/09/16 12:41:36;;;;;;;1.77;0.88;;;23.80;61.20;;;;;;6314812;28;20515;-73
2021/09/16 12:44:38;;;;;;;1.95;1.10;;;23.80;61.20;;;;;;6318401;28;20055;-73
2021/09/16 12:47:50;;;;;;;1.52;0.73;;;23.80;61.20;;;;;;6318356;28;20020;-73
2021/09/16 12:51:08;;;;;;;1.67;1.00;;;23.80;61.20;;;;;;6317927;28;20035;-73
2021/09/16 12:54:21;;;;;;;2.90;0.95;;;23.80;61.20;;;;;;6317535;28;20024;-73
2021/09/16 12:57:29;;;;;;;1.30;0.93;;;23.80;61.20;;;;;;6317926;28;20452;-73
2021/09/16 13:00:30;;;;;;;1.33;0.90;;;23.80;61.20;;;;;;6317514;28;20070;-73
2021/09/16 13:03:31;;;;;;;1.70;1.00;;;23.80;61.20;;;;;;6318026;28;20020;-72
2021/09/16 13:06:33;;;;;;;1.40;0.80;;;23.80;61.20;;;;;;6318289;28;20016;-73
2021/09/16 13:09:34;;;;;;;0.85;0.63;;;23.80;61.20;;;;;;6317234;28;20052;-72
2021/09/16 13:12:35;;;;;;;0.73;0.60;;;23.80;61.20;;;;;;6317300;28;20024;-73
2021/09/16 13:15:37;;;;;;;1.25;0.70;;;23.80;61.20;;;;;;6317792;28;20035;-72
2021/09/16 13:18:38;;;;;;;1.77;0.80;;;23.80;61.20;;;;;;6318972;28;20033;-73
2021/09/16 13:21:38;;;;;;;2.30;0.90;;;23.80;61.20;;;;;;6323397;28;20103;-73
2021/09/16 13:24:39;;;;;;;1.63;0.90;;;23.80;61.20;;;;;;6321389;28;20121;-73
2021/09/16 13:27:40;;;;;;;1.67;0.77;;;23.80;61.20;;;;;;6323027;28;20099;-72
2021/09/16 13:30:41;;;;;;;1.00;0.75;;;23.80;61.20;;;;;;6323533;28;20147;-73
2021/09/16 13:33:42;;;;;;;1.02;0.77;;;23.80;61.20;;;;;;6323320;28;20028;-73
2021/09/16 13:36:42;;;;;;;1.10;0.70;;;23.80;61.20;;;;;;6323421;28;20058;-73
2021/09/16 13:39:43;;;;;;;2.00;0.55;;;23.80;61.20;;;;;;6322321;28;20039;-73
2021/09/16 13:42:44;;;;;;;1.08;0.80;;;23.80;61.20;;;;;;6323237;28;20027;-73
2021/09/16 13:45:45;;;;;;;1.15;0.90;;;23.80;61.20;;;;;;6322423;28;20426;-73
2021/09/16 13:48:45;;;;;;;1.13;0.70;;;23.80;61.20;;;;;;6323574;28;20012;-72
2021/09/16 13:51:46;;;;;;;0.82;0.65;;;23.80;61.20;;;;;;6323435;28;20103;-73
2021/09/16 13:54:47;;;;;;;0.70;0.60;;;23.80;61.20;;;;;;6323620;28;20032;-72
2021/09/16 13:57:47;;;;;;;1.00;0.70;;;23.80;61.20;;;;;;6322205;28;20359;-73
2021/09/16 14:00:50;;;;;;;1.60;0.88;;;23.80;61.20;;;;;;6321722;28;20658;-74
2021/09/16 14:03:51;;;;;;;1.10;0.70;;;23.80;61.20;;;;;;6321834;28;20024;-73
2021/09/16 14:06:52;;;;;;;1.02;0.70;;;23.80;61.20;;;;;;6322058;28;20095;-72
2021/09/16 14:09:52;;;;;;;0.60;0.50;;;23.80;61.20;;;;;;6317765;28;20413;-73
2021/09/16 14:12:53;;;;;;;1.88;0.70;;;23.80;61.20;;;;;;6321881;28;20070;-73
2021/09/16 14:15:53;;;;;;;1.10;0.57;;;23.80;61.20;;;;;;6318685;28;20592;-72
2021/09/16 14:18:54;;;;;;;0.70;0.50;;;23.80;61.10;;;;;;6321875;28;20090;-72
2021/09/16 14:21:54;;;;;;;0.82;0.70;;;23.80;61.10;;;;;;6320977;28;20389;-73
2021/09/16 14:24:55;;;;;;;0.75;0.60;;;23.80;61.20;;;;;;6321297;28;20032;-73
2021/09/16 14:27:55;;;;;;;0.43;0.43;;;23.80;61.10;;;;;;6321291;28;20035;-73
2021/09/16 14:30:56;;;;;;;0.88;0.60;;;23.80;61.10;;;;;;6320599;28;20443;-72
2021/09/16 14:33:56;;;;;;;0.80;0.60;;;23.80;61.10;;;;;;6321091;28;20031;-72
2021/09/16 14:36:57;;;;;;;0.60;0.60;;;23.80;61.20;;;;;;6320694;28;20119;-72
2021/09/16 14:39:58;;;;;;;0.98;0.63;;;23.80;61.10;;;;;;6320731;28;20123;-73
2021/09/16 14:42:58;;;;;;;0.85;0.70;;;23.80;61.10;;;;;;6321147;28;20054;-72
2021/09/16 14:45:59;;;;;;;0.55;0.50;;;23.80;61.10;;;;;;6320687;28;20081;-72
2021/09/16 14:48:59;;;;;;;0.93;0.55;;;23.80;61.10;;;;;;6320710;28;20106;-72
2021/09/16 14:52:00;;;;;;;0.77;0.57;;;23.80;61.10;;;;;;6320378;28;20027;-72
2021/09/16 14:55:01;;;;;;;0.63;0.57;;;23.80;61.10;;;;;;6320603;28;20021;-72
2021/09/16 14:58:02;;;;;;;0.40;0.40;;;23.80;61.10;;;;;;6320787;28;20032;-72
2021/09/16 15:01:03;;;;;;;0.85;0.50;;;23.80;61.10;;;;;;6320379;28;20115;-72
2021/09/16 15:04:03;;;;;;;0.88;0.60;;;23.80;61.20;;;;;;6321253;28;20032;-72
2021/09/16 15:07:04;;;;;;;1.13;0.40;;;23.80;61.20;;;;;;6320364;28;20080;-72
2021/09/16 15:10:05;;;;;;;0.75;0.70;;;23.80;61.10;;;;;;6320323;28;20792;-72
2021/09/16 15:13:06;;;;;;;0.93;0.50;;;23.80;61.10;;;;;;6320427;28;20020;-72
2021/09/16 15:16:07;;;;;;;0.60;0.60;;;23.80;61.10;;;;;;6305008;28;20105;-72
2021/09/16 15:19:07;;;;;;;0.93;0.60;;;23.80;61.10;;;;;;6320182;28;20032;-73
2021/09/16 15:22:08;;;;;;;1.88;0.70;;;23.80;61.10;;;;;;6320117;28;20031;-72
2021/09/16 15:25:09;;;;;;;0.85;0.70;;;23.80;61.10;;;;;;6320183;28;20024;-72
2021/09/16 15:28:10;;;;;;;0.40;0.40;;;23.80;61.10;;;;;;6319498;28;20020;-73
2021/09/16 15:31:11;;;;;;;0.52;0.52;;;23.80;61.10;;;;;;6319239;28;20032;-72
2021/09/16 15:34:11;;;;;;;0.65;0.60;;;23.80;61.10;;;;;;6320392;28;20107;-72
2021/09/16 15:37:12;;;;;;;2.42;0.60;;;23.80;61.10;;;;;;6319510;28;20031;-73
2021/09/16 15:40:12;;;;;;;0.80;0.60;;;23.80;61.10;;;;;;6319330;28;20434;-73
2021/09/16 15:43:13;;;;;;;1.85;0.60;;;23.80;61.90;;;;;;6318746;28;20028;-72
2021/09/16 15:46:14;;;;;;;0.95;0.52;;;23.80;61.10;;;;;;6319669;28;20024;-72
2021/09/16 15:49:15;;;;;;;0.60;0.47;;;23.80;61.10;;;;;;6319401;28;20028;-73
2021/09/16 15:52:15;;;;;;;0.65;0.40;;;23.80;61.10;;;;;;6318184;28;20024;-72
2021/09/16 15:55:16;;;;;;;0.60;0.50;;;23.80;61.10;;;;;;6319261;28;20024;-72
2021/09/16 15:58:17;;;;;;;0.75;0.50;;;23.80;61.10;;;;;;6319238;28;20505;-72